sensor_id;sensor_type;location;lat;lon;timestamp;temperature;humidity
1377;DHT22;682;52.502;13.488;2024-03-08T00:01:03;2.90;1.00
1377;DHT22;682;52.502;13.488;2024-03-08T00:03:32;2.90;1.00
1377;DHT22;682;52.502;13.488;2024-03-08T00:05:59;2.90;1.00
1377;DHT22;682;52.502;13.488;2024-03-08T00:08:26;3.00;1.00
1377;DHT22;682;52.502;13.488;2024-03-08T00:10:58;3.00;1.00
1377;DHT22;682;52.502;13.488;2024-03-08T00:13:25;2.90;1.00
1377;DHT22;682;52.502;13.488;2024-03-08T00:15:53;2.90;1.00
1377;DHT22;682;52.502;13.488;2024-03-08T00:18:23;2.90;1.00
1377;DHT22;682;52.502;13.488;2024-03-08T00:20:50;2.80;1.00
1377;DHT22;682;52.502;13.488;2024-03-08T00:23:17;2.80;1.00
1377;DHT22;682;52.502;13.488;2024-03-08T00:25:44;2.90;1.00
1377;DHT22;682;52.502;13.488;2024-03-08T00:28:13;2.80;1.00
1377;DHT22;682;52.502;13.488;2024-03-08T00:30:42;2.80;1.00
1377;DHT22;682;52.502;13.488;2024-03-08T00:33:09;2.80;1.00
1377;DHT22;682;52.502;13.488;2024-03-08T00:35:37;2.80;1.00
1377;DHT22;682;52.502;13.488;2024-03-08T00:38:06;2.90;1.00
1377;DHT22;682;52.502;13.488;2024-03-08T00:40:33;2.90;1.00
1377;DHT22;682;52.502;13.488;2024-03-08T00:43:01;2.80;1.00
1377;DHT22;682;52.502;13.488;2024-03-08T00:45:34;2.80;1.00
1377;DHT22;682;52.502;13.488;2024-03-08T00:48:03;2.90;1.00
1377;DHT22;682;52.502;13.488;2024-03-08T00:50:31;2.80;1.00
1377;DHT22;682;52.502;13.488;2024-03-08T00:52:59;2.80;1.00
1377;DHT22;682;52.502;13.488;2024-03-08T00:55:26;2.80;1.00
1377;DHT22;682;52.502;13.488;2024-03-08T00:57:55;2.80;1.00
1377;DHT22;682;52.502;13.488;2024-03-08T01:00:22;2.70;1.00
1377;DHT22;682;52.502;13.488;2024-03-08T01:02:52;2.70;1.00
1377;DHT22;682;52.502;13.488;2024-03-08T01:05:20;2.60;1.00
1377;DHT22;682;52.502;13.488;2024-03-08T01:07:47;2.60;1.00
1377;DHT22;682;52.502;13.488;2024-03-08T01:10:16;2.60;1.00
1377;DHT22;682;52.502;13.488;2024-03-08T01:12:44;2.60;1.00
1377;DHT22;682;52.502;13.488;2024-03-08T01:15:11;2.50;1.00
1377;DHT22;682;52.502;13.488;2024-03-08T01:17:38;2.60;1.00
1377;DHT22;682;52.502;13.488;2024-03-08T01:20:08;2.50;1.00
1377;DHT22;682;52.502;13.488;2024-03-08T01:22:36;2.40;1.00
1377;DHT22;682;52.502;13.488;2024-03-08T01:25:04;2.40;1.00
1377;DHT22;682;52.502;13.488;2024-03-08T01:27:31;2.40;1.00
1377;DHT22;682;52.502;13.488;2024-03-08T01:29:58;2.40;1.00
1377;DHT22;682;52.502;13.488;2024-03-08T01:32:26;2.40;1.00
1377;DHT22;682;52.502;13.488;2024-03-08T01:34:53;2.40;1.00
1377;DHT22;682;52.502;13.488;2024-03-08T01:37:21;2.30;1.00
1377;DHT22;682;52.502;13.488;2024-03-08T01:39:48;2.30;1.00
1377;DHT22;682;52.502;13.488;2024-03-08T01:42:16;2.20;1.00
1377;DHT22;682;52.502;13.488;2024-03-08T01:44:43;2.20;1.00
1377;DHT22;682;52.502;13.488;2024-03-08T01:47:11;2.20;1.00
1377;DHT22;682;52.502;13.488;2024-03-08T01:49:38;2.20;1.00
1377;DHT22;682;52.502;13.488;2024-03-08T01:52:05;2.20;1.00
1377;DHT22;682;52.502;13.488;2024-03-08T01:54:34;2.20;1.00
1377;DHT22;682;52.502;13.488;2024-03-08T01:57:02;2.10;1.00
1377;DHT22;682;52.502;13.488;2024-03-08T01:59:29;2.10;1.00
1377;DHT22;682;52.502;13.488;2024-03-08T02:02:00;2.00;1.00
1377;DHT22;682;52.502;13.488;2024-03-08T02:04:29;2.00;1.00
1377;DHT22;682;52.502;13.488;2024-03-08T02:06:56;2.00;1.00
1377;DHT22;682;52.502;13.488;2024-03-08T02:09:24;2.00;1.00
1377;DHT22;682;52.502;13.488;2024-03-08T02:11:53;2.00;1.00
1377;DHT22;682;52.502;13.488;2024-03-08T02:14:21;1.90;1.00
1377;DHT22;682;52.502;13.488;2024-03-08T02:16:48;2.00;1.00
1377;DHT22;682;52.502;13.488;2024-03-08T02:19:16;2.00;1.00
1377;DHT22;682;52.502;13.488;2024-03-08T02:21:46;2.00;1.00
1377;DHT22;682;52.502;13.488;2024-03-08T02:24:14;2.00;1.00
1377;DHT22;682;52.502;13.488;2024-03-08T02:26:42;2.00;1.00
1377;DHT22;682;52.502;13.488;2024-03-08T02:29:09;1.90;1.00
1377;DHT22;682;52.502;13.488;2024-03-08T02:31:40;1.90;1.00
1377;DHT22;682;52.502;13.488;2024-03-08T02:34:07;1.90;1.00
1377;DHT22;682;52.502;13.488;2024-03-08T02:36:35;1.90;1.00
1377;DHT22;682;52.502;13.488;2024-03-08T02:39:04;1.90;1.00
1377;DHT22;682;52.502;13.488;2024-03-08T02:41:32;1.90;1.00
1377;DHT22;682;52.502;13.488;2024-03-08T02:43:59;1.80;1.00
1377;DHT22;682;52.502;13.488;2024-03-08T02:46:26;1.90;1.00
1377;DHT22;682;52.502;13.488;2024-03-08T02:48:54;1.90;1.00
1377;DHT22;682;52.502;13.488;2024-03-08T02:51:21;2.00;1.00
1377;DHT22;682;52.502;13.488;2024-03-08T02:53:48;2.00;1.00
1377;DHT22;682;52.502;13.488;2024-03-08T02:56:18;2.10;1.00
1377;DHT22;682;52.502;13.488;2024-03-08T02:58:47;2.20;1.00
1377;DHT22;682;52.502;13.488;2024-03-08T03:01:16;2.20;1.00
1377;DHT22;682;52.502;13.488;2024-03-08T03:03:45;2.20;1.00
1377;DHT22;682;52.502;13.488;2024-03-08T03:06:13;2.10;1.00
1377;DHT22;682;52.502;13.488;2024-03-08T03:08:41;2.00;1.00
1377;DHT22;682;52.502;13.488;2024-03-08T03:11:09;2.00;1.00
1377;DHT22;682;52.502;13.488;2024-03-08T03:13:38;1.90;1.00
1377;DHT22;682;52.502;13.488;2024-03-08T03:16:06;1.90;1.00
1377;DHT22;682;52.502;13.488;2024-03-08T03:18:33;1.90;1.00
1377;DHT22;682;52.502;13.488;2024-03-08T03:21:03;1.80;1.00
1377;DHT22;682;52.502;13.488;2024-03-08T03:23:33;1.70;1.00
1377;DHT22;682;52.502;13.488;2024-03-08T03:26:01;1.70;1.00
1377;DHT22;682;52.502;13.488;2024-03-08T03:28:28;1.70;1.00
1377;DHT22;682;52.502;13.488;2024-03-08T03:30:56;1.60;1.00
1377;DHT22;682;52.502;13.488;2024-03-08T03:33:24;1.60;1.00
1377;DHT22;682;52.502;13.488;2024-03-08T03:35:51;1.60;1.00
1377;DHT22;682;52.502;13.488;2024-03-08T03:38:18;1.50;1.00
1377;DHT22;682;52.502;13.488;2024-03-08T03:40:48;1.50;1.00
1377;DHT22;682;52.502;13.488;2024-03-08T03:43:18;1.50;1.00
1377;DHT22;682;52.502;13.488;2024-03-08T03:45:45;1.50;1.00
1377;DHT22;682;52.502;13.488;2024-03-08T03:48:13;1.50;1.00
1377;DHT22;682;52.502;13.488;2024-03-08T03:50:40;1.40;1.00
1377;DHT22;682;52.502;13.488;2024-03-08T03:53:10;1.40;1.00
1377;DHT22;682;52.502;13.488;2024-03-08T03:55:38;1.40;1.00
1377;DHT22;682;52.502;13.488;2024-03-08T03:58:05;1.40;1.00
1377;DHT22;682;52.502;13.488;2024-03-08T04:00:32;1.40;1.00
1377;DHT22;682;52.502;13.488;2024-03-08T04:02:59;1.40;1.00
1377;DHT22;682;52.502;13.488;2024-03-08T04:05:28;1.40;1.00
1377;DHT22;682;52.502;13.488;2024-03-08T04:07:55;1.40;1.00
1377;DHT22;682;52.502;13.488;2024-03-08T04:10:22;1.40;1.00
1377;DHT22;682;52.502;13.488;2024-03-08T04:12:49;1.40;1.00
1377;DHT22;682;52.502;13.488;2024-03-08T04:15:16;1.40;1.00
1377;DHT22;682;52.502;13.488;2024-03-08T04:17:47;1.40;1.00
1377;DHT22;682;52.502;13.488;2024-03-08T04:20:14;1.30;1.00
1377;DHT22;682;52.502;13.488;2024-03-08T04:22:44;1.30;1.00
1377;DHT22;682;52.502;13.488;2024-03-08T04:25:14;1.30;1.00
1377;DHT22;682;52.502;13.488;2024-03-08T04:27:41;1.30;1.00
1377;DHT22;682;52.502;13.488;2024-03-08T04:30:08;1.30;1.00
1377;DHT22;682;52.502;13.488;2024-03-08T04:32:36;1.30;1.00
1377;DHT22;682;52.502;13.488;2024-03-08T04:35:04;1.20;1.00
1377;DHT22;682;52.502;13.488;2024-03-08T04:37:31;1.20;1.00
1377;DHT22;682;52.502;13.488;2024-03-08T04:39:59;1.00;1.00
1377;DHT22;682;52.502;13.488;2024-03-08T04:42:27;1.10;1.00
1377;DHT22;682;52.502;13.488;2024-03-08T04:44:55;1.10;1.00
1377;DHT22;682;52.502;13.488;2024-03-08T04:47:22;1.00;1.00
1377;DHT22;682;52.502;13.488;2024-03-08T04:49:51;1.10;1.00
1377;DHT22;682;52.502;13.488;2024-03-08T04:52:18;1.10;1.00
1377;DHT22;682;52.502;13.488;2024-03-08T04:54:45;1.00;1.00
1377;DHT22;682;52.502;13.488;2024-03-08T04:57:15;1.00;1.00
1377;DHT22;682;52.502;13.488;2024-03-08T04:59:43;0.90;1.00
1377;DHT22;682;52.502;13.488;2024-03-08T05:02:10;0.90;1.00
1377;DHT22;682;52.502;13.488;2024-03-08T05:04:40;0.80;1.00
1377;DHT22;682;52.502;13.488;2024-03-08T05:07:08;0.80;1.00
1377;DHT22;682;52.502;13.488;2024-03-08T05:09:35;0.80;1.00
1377;DHT22;682;52.502;13.488;2024-03-08T05:12:03;0.70;1.00
1377;DHT22;682;52.502;13.488;2024-03-08T05:14:32;0.70;1.00
1377;DHT22;682;52.502;13.488;2024-03-08T05:17:00;0.70;1.00
1377;DHT22;682;52.502;13.488;2024-03-08T05:19:27;0.70;1.00
1377;DHT22;682;52.502;13.488;2024-03-08T05:21:56;0.70;1.00
1377;DHT22;682;52.502;13.488;2024-03-08T05:24:23;0.70;1.00
1377;DHT22;682;52.502;13.488;2024-03-08T05:26:50;0.70;1.00
1377;DHT22;682;52.502;13.488;2024-03-08T05:29:18;0.60;1.00
1377;DHT22;682;52.502;13.488;2024-03-08T05:31:49;0.60;1.00
1377;DHT22;682;52.502;13.488;2024-03-08T05:34:16;0.60;1.00
1377;DHT22;682;52.502;13.488;2024-03-08T05:36:45;0.60;1.00
1377;DHT22;682;52.502;13.488;2024-03-08T05:39:12;0.60;1.00
1377;DHT22;682;52.502;13.488;2024-03-08T05:41:40;0.60;1.00
1377;DHT22;682;52.502;13.488;2024-03-08T05:44:07;0.50;1.00
1377;DHT22;682;52.502;13.488;2024-03-08T05:46:34;0.50;1.00
1377;DHT22;682;52.502;13.488;2024-03-08T05:49:03;0.60;1.00
1377;DHT22;682;52.502;13.488;2024-03-08T05:51:31;0.60;1.00
1377;DHT22;682;52.502;13.488;2024-03-08T05:54:00;0.60;1.00
1377;DHT22;682;52.502;13.488;2024-03-08T05:56:28;0.60;1.00
1377;DHT22;682;52.502;13.488;2024-03-08T05:58:55;0.70;1.00
1377;DHT22;682;52.502;13.488;2024-03-08T06:01:23;0.60;1.00
1377;DHT22;682;52.502;13.488;2024-03-08T06:03:50;0.70;1.00
1377;DHT22;682;52.502;13.488;2024-03-08T06:06:21;0.70;1.00
1377;DHT22;682;52.502;13.488;2024-03-08T06:08:51;0.70;1.00
1377;DHT22;682;52.502;13.488;2024-03-08T06:11:19;0.70;1.00
1377;DHT22;682;52.502;13.488;2024-03-08T06:13:47;0.70;1.00
1377;DHT22;682;52.502;13.488;2024-03-08T06:16:15;0.80;1.00
1377;DHT22;682;52.502;13.488;2024-03-08T06:18:42;0.80;1.00
1377;DHT22;682;52.502;13.488;2024-03-08T06:21:09;0.80;1.00
1377;DHT22;682;52.502;13.488;2024-03-08T06:23:40;0.80;1.00
1377;DHT22;682;52.502;13.488;2024-03-08T06:26:07;0.80;1.00
1377;DHT22;682;52.502;13.488;2024-03-08T06:28:34;0.90;1.00
1377;DHT22;682;52.502;13.488;2024-03-08T06:31:02;1.00;1.00
1377;DHT22;682;52.502;13.488;2024-03-08T06:33:30;1.10;1.00
1377;DHT22;682;52.502;13.488;2024-03-08T06:35:58;1.10;1.00
1377;DHT22;682;52.502;13.488;2024-03-08T06:38:26;1.20;1.00
1377;DHT22;682;52.502;13.488;2024-03-08T06:40:54;1.20;1.00
1377;DHT22;682;52.502;13.488;2024-03-08T06:43:22;1.20;1.00
1377;DHT22;682;52.502;13.488;2024-03-08T06:45:51;1.30;1.00
1377;DHT22;682;52.502;13.488;2024-03-08T06:48:18;1.40;1.00
1377;DHT22;682;52.502;13.488;2024-03-08T06:50:46;1.40;1.00
1377;DHT22;682;52.502;13.488;2024-03-08T06:53:13;1.50;1.00
1377;DHT22;682;52.502;13.488;2024-03-08T06:55:40;1.60;1.00
1377;DHT22;682;52.502;13.488;2024-03-08T06:58:10;1.70;1.00
1377;DHT22;682;52.502;13.488;2024-03-08T07:00:37;1.80;1.00
1377;DHT22;682;52.502;13.488;2024-03-08T07:03:07;1.90;1.00
1377;DHT22;682;52.502;13.488;2024-03-08T07:05:38;2.00;1.00
1377;DHT22;682;52.502;13.488;2024-03-08T07:08:05;2.10;1.00
1377;DHT22;682;52.502;13.488;2024-03-08T07:10:36;2.10;1.00
1377;DHT22;682;52.502;13.488;2024-03-08T07:13:04;2.20;1.00
1377;DHT22;682;52.502;13.488;2024-03-08T07:15:32;2.30;1.00
1377;DHT22;682;52.502;13.488;2024-03-08T07:18:01;2.50;1.00
1377;DHT22;682;52.502;13.488;2024-03-08T07:20:28;2.60;1.00
1377;DHT22;682;52.502;13.488;2024-03-08T07:22:55;2.70;1.00
1377;DHT22;682;52.502;13.488;2024-03-08T07:25:22;2.70;1.00
1377;DHT22;682;52.502;13.488;2024-03-08T07:27:50;2.80;1.00
1377;DHT22;682;52.502;13.488;2024-03-08T07:30:18;2.90;1.00
1377;DHT22;682;52.502;13.488;2024-03-08T07:33:00;3.10;1.00
1377;DHT22;682;52.502;13.488;2024-03-08T07:35:28;3.20;1.00
1377;DHT22;682;52.502;13.488;2024-03-08T07:37:55;3.20;1.00
1377;DHT22;682;52.502;13.488;2024-03-08T07:40:25;3.20;1.00
1377;DHT22;682;52.502;13.488;2024-03-08T07:42:52;3.30;1.00
1377;DHT22;682;52.502;13.488;2024-03-08T07:45:24;3.40;1.00
1377;DHT22;682;52.502;13.488;2024-03-08T07:47:51;3.60;1.00
1377;DHT22;682;52.502;13.488;2024-03-08T07:50:20;3.70;1.00
1377;DHT22;682;52.502;13.488;2024-03-08T07:52:48;3.80;1.00
1377;DHT22;682;52.502;13.488;2024-03-08T07:55:16;3.90;1.00
1377;DHT22;682;52.502;13.488;2024-03-08T07:57:43;4.00;1.00
1377;DHT22;682;52.502;13.488;2024-03-08T08:00:11;4.10;1.00
1377;DHT22;682;52.502;13.488;2024-03-08T08:02:43;4.30;1.00
1377;DHT22;682;52.502;13.488;2024-03-08T08:05:11;4.40;1.00
1377;DHT22;682;52.502;13.488;2024-03-08T08:07:43;4.50;1.00
1377;DHT22;682;52.502;13.488;2024-03-08T08:10:12;4.50;1.00
1377;DHT22;682;52.502;13.488;2024-03-08T08:12:46;4.60;1.00
1377;DHT22;682;52.502;13.488;2024-03-08T08:15:17;4.70;1.00
1377;DHT22;682;52.502;13.488;2024-03-08T08:17:45;4.80;1.00
1377;DHT22;682;52.502;13.488;2024-03-08T08:20:13;5.00;1.00
1377;DHT22;682;52.502;13.488;2024-03-08T08:22:44;5.20;1.00
1377;DHT22;682;52.502;13.488;2024-03-08T08:25:12;5.30;1.00
1377;DHT22;682;52.502;13.488;2024-03-08T08:27:41;5.40;1.00
1377;DHT22;682;52.502;13.488;2024-03-08T08:30:12;5.40;1.00
1377;DHT22;682;52.502;13.488;2024-03-08T08:32:42;5.50;1.00
1377;DHT22;682;52.502;13.488;2024-03-08T08:35:12;5.60;1.00
1377;DHT22;682;52.502;13.488;2024-03-08T08:37:39;5.70;1.00
1377;DHT22;682;52.502;13.488;2024-03-08T08:40:09;5.80;1.00
1377;DHT22;682;52.502;13.488;2024-03-08T08:42:40;5.90;1.00
1377;DHT22;682;52.502;13.488;2024-03-08T08:45:09;6.00;1.00
1377;DHT22;682;52.502;13.488;2024-03-08T08:47:36;6.10;1.00
1377;DHT22;682;52.502;13.488;2024-03-08T08:50:05;6.30;1.00
1377;DHT22;682;52.502;13.488;2024-03-08T08:52:33;6.30;1.00
1377;DHT22;682;52.502;13.488;2024-03-08T08:55:01;6.50;1.00
1377;DHT22;682;52.502;13.488;2024-03-08T08:57:36;6.80;1.00
1377;DHT22;682;52.502;13.488;2024-03-08T09:00:07;7.20;1.00
1377;DHT22;682;52.502;13.488;2024-03-08T09:02:40;7.80;1.00
1377;DHT22;682;52.502;13.488;2024-03-08T09:05:08;8.70;1.00
1377;DHT22;682;52.502;13.488;2024-03-08T09:07:40;9.00;1.00
1377;DHT22;682;52.502;13.488;2024-03-08T09:10:08;10.10;1.00
1377;DHT22;682;52.502;13.488;2024-03-08T09:12:39;11.30;1.00
1377;DHT22;682;52.502;13.488;2024-03-08T09:15:08;12.40;1.00
1377;DHT22;682;52.502;13.488;2024-03-08T09:17:37;13.30;1.00
1377;DHT22;682;52.502;13.488;2024-03-08T09:20:06;14.10;1.00
1377;DHT22;682;52.502;13.488;2024-03-08T09:22:34;14.30;1.00
1377;DHT22;682;52.502;13.488;2024-03-08T09:25:01;14.00;1.00
1377;DHT22;682;52.502;13.488;2024-03-08T09:27:34;14.00;1.00
1377;DHT22;682;52.502;13.488;2024-03-08T09:30:06;14.30;1.00
1377;DHT22;682;52.502;13.488;2024-03-08T09:32:34;14.80;1.00
1377;DHT22;682;52.502;13.488;2024-03-08T09:35:04;14.80;1.00
1377;DHT22;682;52.502;13.488;2024-03-08T09:37:32;14.90;1.00
1377;DHT22;682;52.502;13.488;2024-03-08T09:40:02;14.70;1.00
1377;DHT22;682;52.502;13.488;2024-03-08T09:42:34;15.20;1.00
1377;DHT22;682;52.502;13.488;2024-03-08T09:45:08;15.70;1.00
1377;DHT22;682;52.502;13.488;2024-03-08T09:47:37;15.30;1.00
1377;DHT22;682;52.502;13.488;2024-03-08T09:50:06;15.50;1.00
1377;DHT22;682;52.502;13.488;2024-03-08T09:52:36;15.60;1.00
1377;DHT22;682;52.502;13.488;2024-03-08T09:55:06;15.00;1.00
1377;DHT22;682;52.502;13.488;2024-03-08T09:57:35;14.60;1.00
1377;DHT22;682;52.502;13.488;2024-03-08T10:00:06;14.60;1.00
1377;DHT22;682;52.502;13.488;2024-03-08T10:02:45;14.30;1.00
1377;DHT22;682;52.502;13.488;2024-03-08T10:05:12;14.00;1.00
1377;DHT22;682;52.502;13.488;2024-03-08T10:07:40;14.30;1.00
1377;DHT22;682;52.502;13.488;2024-03-08T10:10:07;14.50;1.00
1377;DHT22;682;52.502;13.488;2024-03-08T10:12:37;14.40;1.00
1377;DHT22;682;52.502;13.488;2024-03-08T10:15:08;14.30;1.00
1377;DHT22;682;52.502;13.488;2024-03-08T10:17:42;14.20;1.00
1377;DHT22;682;52.502;13.488;2024-03-08T10:20:14;13.70;1.00
1377;DHT22;682;52.502;13.488;2024-03-08T10:22:44;13.40;1.00
1377;DHT22;682;52.502;13.488;2024-03-08T10:25:17;13.20;1.00
1377;DHT22;682;52.502;13.488;2024-03-08T10:27:46;13.60;1.00
1377;DHT22;682;52.502;13.488;2024-03-08T10:30:16;14.00;1.00
1377;DHT22;682;52.502;13.488;2024-03-08T10:32:47;14.10;1.00
1377;DHT22;682;52.502;13.488;2024-03-08T10:35:16;15.00;1.00
1377;DHT22;682;52.502;13.488;2024-03-08T10:37:46;15.50;1.00
1377;DHT22;682;52.502;13.488;2024-03-08T10:40:16;15.40;1.00
1377;DHT22;682;52.502;13.488;2024-03-08T10:42:51;15.60;1.00
1377;DHT22;682;52.502;13.488;2024-03-08T10:45:30;15.70;1.00
1377;DHT22;682;52.502;13.488;2024-03-08T10:48:08;16.20;1.00
1377;DHT22;682;52.502;13.488;2024-03-08T10:50:38;17.20;1.00
1377;DHT22;682;52.502;13.488;2024-03-08T10:53:06;18.30;1.00
1377;DHT22;682;52.502;13.488;2024-03-08T10:55:37;18.80;1.00
1377;DHT22;682;52.502;13.488;2024-03-08T10:58:06;17.50;1.00
1377;DHT22;682;52.502;13.488;2024-03-08T11:00:36;17.10;1.00
1377;DHT22;682;52.502;13.488;2024-03-08T11:03:04;16.90;1.00
1377;DHT22;682;52.502;13.488;2024-03-08T11:05:32;16.80;1.00
1377;DHT22;682;52.502;13.488;2024-03-08T11:08:05;17.00;1.00
1377;DHT22;682;52.502;13.488;2024-03-08T11:10:34;17.80;1.00
1377;DHT22;682;52.502;13.488;2024-03-08T11:13:01;18.30;1.00
1377;DHT22;682;52.502;13.488;2024-03-08T11:15:29;18.70;1.00
1377;DHT22;682;52.502;13.488;2024-03-08T11:18:00;19.20;1.00
1377;DHT22;682;52.502;13.488;2024-03-08T11:20:29;20.30;1.00
1377;DHT22;682;52.502;13.488;2024-03-08T11:23:00;21.20;1.00
1377;DHT22;682;52.502;13.488;2024-03-08T11:25:33;21.10;1.00
1377;DHT22;682;52.502;13.488;2024-03-08T11:28:10;22.30;1.00
1377;DHT22;682;52.502;13.488;2024-03-08T11:30:42;22.80;1.00
1377;DHT22;682;52.502;13.488;2024-03-08T11:33:14;22.60;1.00
1377;DHT22;682;52.502;13.488;2024-03-08T11:35:42;21.30;1.00
1377;DHT22;682;52.502;13.488;2024-03-08T11:38:13;21.30;1.00
1377;DHT22;682;52.502;13.488;2024-03-08T11:40:44;22.30;1.00
1377;DHT22;682;52.502;13.488;2024-03-08T11:43:16;23.50;1.00
1377;DHT22;682;52.502;13.488;2024-03-08T11:45:43;24.30;1.00
1377;DHT22;682;52.502;13.488;2024-03-08T11:48:13;24.90;1.00
1377;DHT22;682;52.502;13.488;2024-03-08T11:50:40;24.70;1.00
1377;DHT22;682;52.502;13.488;2024-03-08T11:53:09;24.80;1.00
1377;DHT22;682;52.502;13.488;2024-03-08T11:55:39;24.90;1.00
1377;DHT22;682;52.502;13.488;2024-03-08T11:58:07;25.00;1.00
1377;DHT22;682;52.502;13.488;2024-03-08T12:00:36;24.80;1.00
1377;DHT22;682;52.502;13.488;2024-03-08T12:03:07;24.00;1.00
1377;DHT22;682;52.502;13.488;2024-03-08T12:05:36;24.40;1.00
1377;DHT22;682;52.502;13.488;2024-03-08T12:08:05;23.90;1.00
1377;DHT22;682;52.502;13.488;2024-03-08T12:10:33;23.60;1.00
1377;DHT22;682;52.502;13.488;2024-03-08T12:13:01;23.50;1.00
1377;DHT22;682;52.502;13.488;2024-03-08T12:15:29;24.20;1.00
1377;DHT22;682;52.502;13.488;2024-03-08T12:18:00;23.90;1.00
1377;DHT22;682;52.502;13.488;2024-03-08T12:20:28;23.40;1.00
1377;DHT22;682;52.502;13.488;2024-03-08T12:22:59;23.30;1.00
1377;DHT22;682;52.502;13.488;2024-03-08T12:25:27;23.90;1.00
1377;DHT22;682;52.502;13.488;2024-03-08T12:28:06;24.20;1.00
1377;DHT22;682;52.502;13.488;2024-03-08T12:30:45;24.60;1.00
1377;DHT22;682;52.502;13.488;2024-03-08T12:33:12;25.50;1.00
1377;DHT22;682;52.502;13.488;2024-03-08T12:35:40;25.60;1.00
1377;DHT22;682;52.502;13.488;2024-03-08T12:38:09;25.30;1.00
1377;DHT22;682;52.502;13.488;2024-03-08T12:40:36;24.80;1.00
1377;DHT22;682;52.502;13.488;2024-03-08T12:43:07;23.40;1.00
1377;DHT22;682;52.502;13.488;2024-03-08T12:45:35;22.70;1.00
1377;DHT22;682;52.502;13.488;2024-03-08T12:48:04;23.60;1.00
1377;DHT22;682;52.502;13.488;2024-03-08T12:50:40;24.70;1.00
1377;DHT22;682;52.502;13.488;2024-03-08T12:53:10;24.80;1.00
1377;DHT22;682;52.502;13.488;2024-03-08T12:55:39;23.70;1.00
1377;DHT22;682;52.502;13.488;2024-03-08T12:58:09;22.00;1.00
1377;DHT22;682;52.502;13.488;2024-03-08T13:00:36;20.90;1.00
1377;DHT22;682;52.502;13.488;2024-03-08T13:03:08;20.40;1.00
1377;DHT22;682;52.502;13.488;2024-03-08T13:05:36;20.20;1.00
1377;DHT22;682;52.502;13.488;2024-03-08T13:08:05;19.60;1.00
1377;DHT22;682;52.502;13.488;2024-03-08T13:10:39;19.30;1.00
1377;DHT22;682;52.502;13.488;2024-03-08T13:13:08;17.90;1.00
1377;DHT22;682;52.502;13.488;2024-03-08T13:15:36;17.50;1.00
1377;DHT22;682;52.502;13.488;2024-03-08T13:18:04;17.20;1.00
1377;DHT22;682;52.502;13.488;2024-03-08T13:20:34;16.70;1.00
1377;DHT22;682;52.502;13.488;2024-03-08T13:23:04;16.40;1.00
1377;DHT22;682;52.502;13.488;2024-03-08T13:25:34;16.40;1.00
1377;DHT22;682;52.502;13.488;2024-03-08T13:28:08;16.10;1.00
1377;DHT22;682;52.502;13.488;2024-03-08T13:30:38;15.80;1.00
1377;DHT22;682;52.502;13.488;2024-03-08T13:33:05;15.80;1.00
1377;DHT22;682;52.502;13.488;2024-03-08T13:35:32;15.70;1.00
1377;DHT22;682;52.502;13.488;2024-03-08T13:38:00;15.50;1.00
1377;DHT22;682;52.502;13.488;2024-03-08T13:40:28;15.30;1.00
1377;DHT22;682;52.502;13.488;2024-03-08T13:42:56;14.70;1.00
1377;DHT22;682;52.502;13.488;2024-03-08T13:45:25;13.70;1.00
1377;DHT22;682;52.502;13.488;2024-03-08T13:47:51;13.10;1.00
1377;DHT22;682;52.502;13.488;2024-03-08T13:50:20;12.80;1.00
1377;DHT22;682;52.502;13.488;2024-03-08T13:52:47;12.50;1.00
1377;DHT22;682;52.502;13.488;2024-03-08T13:55:17;12.40;1.00
1377;DHT22;682;52.502;13.488;2024-03-08T13:57:44;12.30;1.00
1377;DHT22;682;52.502;13.488;2024-03-08T14:00:12;12.20;1.00
1377;DHT22;682;52.502;13.488;2024-03-08T14:02:41;12.20;1.00
1377;DHT22;682;52.502;13.488;2024-03-08T14:05:09;12.00;1.00
1377;DHT22;682;52.502;13.488;2024-03-08T14:07:37;11.80;1.00
1377;DHT22;682;52.502;13.488;2024-03-08T14:10:05;11.70;1.00
1377;DHT22;682;52.502;13.488;2024-03-08T14:12:35;11.80;1.00
1377;DHT22;682;52.502;13.488;2024-03-08T14:15:04;11.70;1.00
1377;DHT22;682;52.502;13.488;2024-03-08T14:17:35;11.60;1.00
1377;DHT22;682;52.502;13.488;2024-03-08T14:20:05;11.60;1.00
1377;DHT22;682;52.502;13.488;2024-03-08T14:22:33;11.60;1.00
1377;DHT22;682;52.502;13.488;2024-03-08T14:25:00;11.60;1.00
1377;DHT22;682;52.502;13.488;2024-03-08T14:27:28;11.50;1.00
1377;DHT22;682;52.502;13.488;2024-03-08T14:29:55;11.40;1.00
1377;DHT22;682;52.502;13.488;2024-03-08T14:32:21;11.40;1.00
1377;DHT22;682;52.502;13.488;2024-03-08T14:34:49;11.30;1.00
1377;DHT22;682;52.502;13.488;2024-03-08T14:37:17;11.30;1.00
1377;DHT22;682;52.502;13.488;2024-03-08T14:39:48;11.20;1.00
1377;DHT22;682;52.502;13.488;2024-03-08T14:42:18;11.20;1.00
1377;DHT22;682;52.502;13.488;2024-03-08T14:44:45;11.00;1.00
1377;DHT22;682;52.502;13.488;2024-03-08T14:47:16;11.00;1.00
1377;DHT22;682;52.502;13.488;2024-03-08T14:49:43;10.80;1.00
1377;DHT22;682;52.502;13.488;2024-03-08T14:52:10;10.80;1.00
1377;DHT22;682;52.502;13.488;2024-03-08T14:54:54;10.70;1.00
1377;DHT22;682;52.502;13.488;2024-03-08T14:57:21;10.70;1.00
1377;DHT22;682;52.502;13.488;2024-03-08T14:59:48;10.50;1.00
1377;DHT22;682;52.502;13.488;2024-03-08T15:02:15;10.50;1.00
1377;DHT22;682;52.502;13.488;2024-03-08T15:04:47;10.50;1.00
1377;DHT22;682;52.502;13.488;2024-03-08T15:07:22;10.60;1.00
1377;DHT22;682;52.502;13.488;2024-03-08T15:09:50;10.60;1.00
1377;DHT22;682;52.502;13.488;2024-03-08T15:12:19;10.60;1.00
1377;DHT22;682;52.502;13.488;2024-03-08T15:14:46;10.50;1.00
1377;DHT22;682;52.502;13.488;2024-03-08T15:17:14;10.40;1.00
1377;DHT22;682;52.502;13.488;2024-03-08T15:19:47;10.40;1.00
1377;DHT22;682;52.502;13.488;2024-03-08T15:22:14;10.40;1.00
1377;DHT22;682;52.502;13.488;2024-03-08T15:24:43;10.30;1.00
1377;DHT22;682;52.502;13.488;2024-03-08T15:27:11;10.30;1.00
1377;DHT22;682;52.502;13.488;2024-03-08T15:29:40;10.30;1.00
1377;DHT22;682;52.502;13.488;2024-03-08T15:32:09;10.30;1.00
1377;DHT22;682;52.502;13.488;2024-03-08T15:34:43;10.20;1.00
1377;DHT22;682;52.502;13.488;2024-03-08T15:37:10;10.20;1.00
1377;DHT22;682;52.502;13.488;2024-03-08T15:39:42;10.10;1.00
1377;DHT22;682;52.502;13.488;2024-03-08T15:42:12;10.10;1.00
1377;DHT22;682;52.502;13.488;2024-03-08T15:44:40;10.00;1.00
1377;DHT22;682;52.502;13.488;2024-03-08T15:47:08;10.00;1.00
1377;DHT22;682;52.502;13.488;2024-03-08T15:49:37;9.90;1.00
1377;DHT22;682;52.502;13.488;2024-03-08T15:52:05;9.90;1.00
1377;DHT22;682;52.502;13.488;2024-03-08T15:54:32;9.90;1.00
1377;DHT22;682;52.502;13.488;2024-03-08T15:57:02;9.90;1.00
1377;DHT22;682;52.502;13.488;2024-03-08T15:59:34;9.90;1.00
1377;DHT22;682;52.502;13.488;2024-03-08T16:02:04;9.80;1.00
1377;DHT22;682;52.502;13.488;2024-03-08T16:04:31;9.80;1.00
1377;DHT22;682;52.502;13.488;2024-03-08T16:06:59;9.80;1.00
1377;DHT22;682;52.502;13.488;2024-03-08T16:09:26;9.70;1.00
1377;DHT22;682;52.502;13.488;2024-03-08T16:11:57;9.70;1.00
1377;DHT22;682;52.502;13.488;2024-03-08T16:14:24;9.60;1.00
1377;DHT22;682;52.502;13.488;2024-03-08T16:16:51;9.60;1.00
1377;DHT22;682;52.502;13.488;2024-03-08T16:19:20;9.50;1.00
1377;DHT22;682;52.502;13.488;2024-03-08T16:21:48;9.50;1.00
1377;DHT22;682;52.502;13.488;2024-03-08T16:24:16;9.50;1.00
1377;DHT22;682;52.502;13.488;2024-03-08T16:26:48;9.50;1.00
1377;DHT22;682;52.502;13.488;2024-03-08T16:29:16;9.40;1.00
1377;DHT22;682;52.502;13.488;2024-03-08T16:31:43;9.40;1.00
1377;DHT22;682;52.502;13.488;2024-03-08T16:34:12;9.30;1.00
1377;DHT22;682;52.502;13.488;2024-03-08T16:36:48;9.20;1.00